sensor_id;sensor_type;location;lat;lon;timestamp;P1;durP1;ratioP1;P2;durP2;ratioP2
3573;SDS011;1801;51.050;6.246;2023-05-07T00:00:31;32.10;;;17.13;;
3573;SDS011;1801;51.050;6.246;2023-05-07T00:02:58;33.10;;;18.07;;
3573;SDS011;1801;51.050;6.246;2023-05-07T00:05:24;41.43;;;19.57;;
3573;SDS011;1801;51.050;6.246;2023-05-07T00:07:49;33.00;;;18.97;;
3573;SDS011;1801;51.050;6.246;2023-05-07T00:10:15;32.63;;;18.77;;
3573;SDS011;1801;51.050;6.246;2023-05-07T00:12:40;40.10;;;19.20;;
3573;SDS011;1801;51.050;6.246;2023-05-07T00:15:06;34.83;;;19.10;;
3573;SDS011;1801;51.050;6.246;2023-05-07T00:17:33;38.43;;;20.53;;
3573;SDS011;1801;51.050;6.246;2023-05-07T00:19:58;40.60;;;21.97;;
3573;SDS011;1801;51.050;6.246;2023-05-07T00:22:23;43.43;;;21.37;;
3573;SDS011;1801;51.050;6.246;2023-05-07T00:24:49;33.37;;;19.27;;
3573;SDS011;1801;51.050;6.246;2023-05-07T00:27:14;31.50;;;18.83;;
3573;SDS011;1801;51.050;6.246;2023-05-07T00:29:39;33.10;;;17.60;;
3573;SDS011;1801;51.050;6.246;2023-05-07T00:32:04;34.67;;;19.43;;
3573;SDS011;1801;51.050;6.246;2023-05-07T00:34:30;38.33;;;18.90;;
3573;SDS011;1801;51.050;6.246;2023-05-07T00:36:55;29.53;;;17.70;;
3573;SDS011;1801;51.050;6.246;2023-05-07T00:39:20;34.40;;;20.93;;
3573;SDS011;1801;51.050;6.246;2023-05-07T00:41:45;40.67;;;18.90;;
3573;SDS011;1801;51.050;6.246;2023-05-07T00:44:11;35.37;;;20.13;;
3573;SDS011;1801;51.050;6.246;2023-05-07T00:46:36;37.83;;;20.57;;
3573;SDS011;1801;51.050;6.246;2023-05-07T00:49:01;38.10;;;18.80;;
3573;SDS011;1801;51.050;6.246;2023-05-07T00:51:26;38.00;;;19.83;;
3573;SDS011;1801;51.050;6.246;2023-05-07T00:53:52;35.33;;;19.40;;
3573;SDS011;1801;51.050;6.246;2023-05-07T00:56:18;33.97;;;19.67;;
3573;SDS011;1801;51.050;6.246;2023-05-07T00:58:43;32.93;;;19.63;;
3573;SDS011;1801;51.050;6.246;2023-05-07T01:01:08;37.40;;;21.27;;
3573;SDS011;1801;51.050;6.246;2023-05-07T01:03:34;35.20;;;19.20;;
3573;SDS011;1801;51.050;6.246;2023-05-07T01:05:59;32.50;;;18.27;;
3573;SDS011;1801;51.050;6.246;2023-05-07T01:08:25;35.30;;;19.80;;
3573;SDS011;1801;51.050;6.246;2023-05-07T01:10:53;36.10;;;19.13;;
3573;SDS011;1801;51.050;6.246;2023-05-07T01:13:18;37.77;;;21.03;;
3573;SDS011;1801;51.050;6.246;2023-05-07T01:15:44;36.67;;;20.70;;
3573;SDS011;1801;51.050;6.246;2023-05-07T01:18:10;38.57;;;19.70;;
3573;SDS011;1801;51.050;6.246;2023-05-07T01:20:35;38.63;;;20.03;;
3573;SDS011;1801;51.050;6.246;2023-05-07T01:23:00;37.87;;;22.47;;
3573;SDS011;1801;51.050;6.246;2023-05-07T01:25:26;45.20;;;21.87;;
3573;SDS011;1801;51.050;6.246;2023-05-07T01:27:51;42.80;;;22.50;;
3573;SDS011;1801;51.050;6.246;2023-05-07T01:30:17;38.10;;;20.03;;
3573;SDS011;1801;51.050;6.246;2023-05-07T01:32:45;37.10;;;18.97;;
3573;SDS011;1801;51.050;6.246;2023-05-07T01:35:13;32.87;;;20.60;;
3573;SDS011;1801;51.050;6.246;2023-05-07T01:37:40;34.10;;;18.07;;
3573;SDS011;1801;51.050;6.246;2023-05-07T01:40:06;30.20;;;18.73;;
3573;SDS011;1801;51.050;6.246;2023-05-07T01:42:32;36.97;;;18.40;;
3573;SDS011;1801;51.050;6.246;2023-05-07T01:44:57;34.03;;;18.60;;
3573;SDS011;1801;51.050;6.246;2023-05-07T01:47:22;34.87;;;18.00;;
3573;SDS011;1801;51.050;6.246;2023-05-07T01:49:48;35.33;;;17.30;;
3573;SDS011;1801;51.050;6.246;2023-05-07T01:52:13;32.13;;;18.17;;
3573;SDS011;1801;51.050;6.246;2023-05-07T01:54:39;32.93;;;17.70;;
3573;SDS011;1801;51.050;6.246;2023-05-07T01:57:04;29.23;;;18.10;;
3573;SDS011;1801;51.050;6.246;2023-05-07T01:59:29;34.50;;;18.90;;
3573;SDS011;1801;51.050;6.246;2023-05-07T02:01:54;29.63;;;17.33;;
3573;SDS011;1801;51.050;6.246;2023-05-07T02:04:19;33.43;;;17.13;;
3573;SDS011;1801;51.050;6.246;2023-05-07T02:06:45;29.93;;;16.97;;
3573;SDS011;1801;51.050;6.246;2023-05-07T02:09:11;33.10;;;17.40;;
3573;SDS011;1801;51.050;6.246;2023-05-07T02:11:36;37.33;;;17.70;;
3573;SDS011;1801;51.050;6.246;2023-05-07T02:14:01;27.03;;;17.67;;
3573;SDS011;1801;51.050;6.246;2023-05-07T02:16:26;28.47;;;17.87;;
3573;SDS011;1801;51.050;6.246;2023-05-07T02:18:51;30.93;;;18.83;;
3573;SDS011;1801;51.050;6.246;2023-05-07T02:21:17;28.47;;;17.77;;
3573;SDS011;1801;51.050;6.246;2023-05-07T02:23:42;33.37;;;17.23;;
3573;SDS011;1801;51.050;6.246;2023-05-07T02:26:07;40.40;;;20.30;;
3573;SDS011;1801;51.050;6.246;2023-05-07T02:28:32;31.70;;;17.57;;
3573;SDS011;1801;51.050;6.246;2023-05-07T02:31:00;33.40;;;18.23;;
3573;SDS011;1801;51.050;6.246;2023-05-07T02:33:25;34.30;;;18.47;;
3573;SDS011;1801;51.050;6.246;2023-05-07T02:35:51;30.13;;;17.10;;
3573;SDS011;1801;51.050;6.246;2023-05-07T02:38:17;34.27;;;17.70;;
3573;SDS011;1801;51.050;6.246;2023-05-07T02:40:42;29.90;;;16.43;;
3573;SDS011;1801;51.050;6.246;2023-05-07T02:43:07;36.13;;;17.70;;
3573;SDS011;1801;51.050;6.246;2023-05-07T02:45:33;27.83;;;16.10;;
3573;SDS011;1801;51.050;6.246;2023-05-07T02:47:58;29.70;;;16.90;;
3573;SDS011;1801;51.050;6.246;2023-05-07T02:50:23;37.70;;;18.50;;
3573;SDS011;1801;51.050;6.246;2023-05-07T02:52:48;37.17;;;17.63;;
3573;SDS011;1801;51.050;6.246;2023-05-07T02:55:14;41.10;;;18.27;;
3573;SDS011;1801;51.050;6.246;2023-05-07T02:57:39;35.37;;;18.30;;
3573;SDS011;1801;51.050;6.246;2023-05-07T03:00:13;41.30;;;18.20;;
3573;SDS011;1801;51.050;6.246;2023-05-07T03:02:38;31.53;;;17.60;;
3573;SDS011;1801;51.050;6.246;2023-05-07T03:05:04;37.40;;;18.23;;
3573;SDS011;1801;51.050;6.246;2023-05-07T03:07:29;33.77;;;17.63;;
3573;SDS011;1801;51.050;6.246;2023-05-07T03:09:55;36.87;;;17.50;;
3573;SDS011;1801;51.050;6.246;2023-05-07T03:12:20;32.00;;;17.77;;
3573;SDS011;1801;51.050;6.246;2023-05-07T03:14:45;33.47;;;16.57;;
3573;SDS011;1801;51.050;6.246;2023-05-07T03:17:10;31.37;;;16.50;;
3573;SDS011;1801;51.050;6.246;2023-05-07T03:19:36;40.23;;;18.30;;
3573;SDS011;1801;51.050;6.246;2023-05-07T03:22:01;36.40;;;18.30;;
3573;SDS011;1801;51.050;6.246;2023-05-07T03:24:26;34.50;;;15.63;;
3573;SDS011;1801;51.050;6.246;2023-05-07T03:26:51;33.77;;;17.00;;
3573;SDS011;1801;51.050;6.246;2023-05-07T03:29:16;37.93;;;18.50;;
3573;SDS011;1801;51.050;6.246;2023-05-07T03:31:42;31.07;;;15.37;;
3573;SDS011;1801;51.050;6.246;2023-05-07T03:34:07;33.20;;;17.03;;
3573;SDS011;1801;51.050;6.246;2023-05-07T03:36:32;39.37;;;16.50;;
3573;SDS011;1801;51.050;6.246;2023-05-07T03:38:57;31.43;;;15.93;;
3573;SDS011;1801;51.050;6.246;2023-05-07T03:41:22;40.83;;;17.00;;
3573;SDS011;1801;51.050;6.246;2023-05-07T03:43:48;40.83;;;17.50;;
3573;SDS011;1801;51.050;6.246;2023-05-07T03:46:13;34.13;;;16.63;;
3573;SDS011;1801;51.050;6.246;2023-05-07T03:48:38;45.10;;;17.27;;
3573;SDS011;1801;51.050;6.246;2023-05-07T03:51:03;38.57;;;17.13;;
3573;SDS011;1801;51.050;6.246;2023-05-07T03:53:28;37.33;;;18.20;;
3573;SDS011;1801;51.050;6.246;2023-05-07T03:55:54;35.97;;;18.13;;
3573;SDS011;1801;51.050;6.246;2023-05-07T03:58:19;36.57;;;18.60;;
3573;SDS011;1801;51.050;6.246;2023-05-07T04:00:44;39.93;;;17.83;;
3573;SDS011;1801;51.050;6.246;2023-05-07T04:03:09;34.80;;;17.40;;
3573;SDS011;1801;51.050;6.246;2023-05-07T04:05:34;38.83;;;17.43;;
3573;SDS011;1801;51.050;6.246;2023-05-07T04:08:00;51.60;;;16.83;;
3573;SDS011;1801;51.050;6.246;2023-05-07T04:10:25;31.47;;;15.97;;
3573;SDS011;1801;51.050;6.246;2023-05-07T04:12:51;37.10;;;16.97;;
3573;SDS011;1801;51.050;6.246;2023-05-07T04:15:16;38.23;;;16.50;;
3573;SDS011;1801;51.050;6.246;2023-05-07T04:17:41;35.27;;;15.17;;
3573;SDS011;1801;51.050;6.246;2023-05-07T04:20:08;30.07;;;16.30;;
3573;SDS011;1801;51.050;6.246;2023-05-07T04:22:33;33.57;;;15.60;;
3573;SDS011;1801;51.050;6.246;2023-05-07T04:24:59;41.20;;;14.60;;
3573;SDS011;1801;51.050;6.246;2023-05-07T04:27:25;32.57;;;15.30;;
3573;SDS011;1801;51.050;6.246;2023-05-07T04:29:51;34.87;;;16.67;;
3573;SDS011;1801;51.050;6.246;2023-05-07T04:32:16;37.83;;;15.30;;
3573;SDS011;1801;51.050;6.246;2023-05-07T04:34:42;32.40;;;15.23;;
3573;SDS011;1801;51.050;6.246;2023-05-07T04:37:07;28.70;;;14.33;;
3573;SDS011;1801;51.050;6.246;2023-05-07T04:39:32;38.37;;;16.23;;
3573;SDS011;1801;51.050;6.246;2023-05-07T04:42:00;39.47;;;16.53;;
3573;SDS011;1801;51.050;6.246;2023-05-07T04:44:25;31.10;;;15.87;;
3573;SDS011;1801;51.050;6.246;2023-05-07T04:46:50;33.03;;;15.27;;
3573;SDS011;1801;51.050;6.246;2023-05-07T04:49:15;28.03;;;14.90;;
3573;SDS011;1801;51.050;6.246;2023-05-07T04:51:41;32.60;;;14.77;;
3573;SDS011;1801;51.050;6.246;2023-05-07T04:54:07;25.60;;;13.00;;
3573;SDS011;1801;51.050;6.246;2023-05-07T04:56:32;32.27;;;14.77;;
3573;SDS011;1801;51.050;6.246;2023-05-07T04:58:58;27.23;;;13.63;;
3573;SDS011;1801;51.050;6.246;2023-05-07T05:01:23;32.07;;;15.70;;
3573;SDS011;1801;51.050;6.246;2023-05-07T05:03:48;28.93;;;13.27;;
3573;SDS011;1801;51.050;6.246;2023-05-07T05:06:13;30.67;;;14.40;;
3573;SDS011;1801;51.050;6.246;2023-05-07T05:08:39;30.00;;;16.57;;
3573;SDS011;1801;51.050;6.246;2023-05-07T05:11:04;26.90;;;14.07;;
3573;SDS011;1801;51.050;6.246;2023-05-07T05:13:30;29.90;;;13.80;;
3573;SDS011;1801;51.050;6.246;2023-05-07T05:15:55;32.10;;;14.53;;
3573;SDS011;1801;51.050;6.246;2023-05-07T05:18:20;29.23;;;13.20;;
3573;SDS011;1801;51.050;6.246;2023-05-07T05:20:46;29.70;;;13.63;;
3573;SDS011;1801;51.050;6.246;2023-05-07T05:23:11;32.03;;;13.93;;
3573;SDS011;1801;51.050;6.246;2023-05-07T05:25:36;31.40;;;14.80;;
3573;SDS011;1801;51.050;6.246;2023-05-07T05:28:02;32.60;;;15.70;;
3573;SDS011;1801;51.050;6.246;2023-05-07T05:30:27;28.90;;;12.87;;
3573;SDS011;1801;51.050;6.246;2023-05-07T05:32:52;29.30;;;14.70;;
3573;SDS011;1801;51.050;6.246;2023-05-07T05:35:17;34.50;;;15.60;;
3573;SDS011;1801;51.050;6.246;2023-05-07T05:37:43;28.20;;;15.27;;
3573;SDS011;1801;51.050;6.246;2023-05-07T05:40:08;33.87;;;15.93;;
3573;SDS011;1801;51.050;6.246;2023-05-07T05:42:33;35.80;;;14.63;;
3573;SDS011;1801;51.050;6.246;2023-05-07T05:44:58;30.20;;;14.17;;
3573;SDS011;1801;51.050;6.246;2023-05-07T05:47:24;27.90;;;13.27;;
3573;SDS011;1801;51.050;6.246;2023-05-07T05:49:49;28.33;;;12.40;;
3573;SDS011;1801;51.050;6.246;2023-05-07T05:52:14;28.17;;;12.30;;
3573;SDS011;1801;51.050;6.246;2023-05-07T05:54:39;25.70;;;13.33;;
3573;SDS011;1801;51.050;6.246;2023-05-07T05:57:05;24.87;;;13.13;;
3573;SDS011;1801;51.050;6.246;2023-05-07T05:59:30;27.90;;;12.77;;
3573;SDS011;1801;51.050;6.246;2023-05-07T06:01:56;24.20;;;12.30;;
3573;SDS011;1801;51.050;6.246;2023-05-07T06:04:21;24.90;;;12.40;;
3573;SDS011;1801;51.050;6.246;2023-05-07T06:06:46;20.00;;;9.20;;
3573;SDS011;1801;51.050;6.246;2023-05-07T06:09:11;15.33;;;8.47;;
3573;SDS011;1801;51.050;6.246;2023-05-07T06:11:37;28.53;;;11.20;;
3573;SDS011;1801;51.050;6.246;2023-05-07T06:14:02;19.90;;;9.57;;
3573;SDS011;1801;51.050;6.246;2023-05-07T06:16:27;15.77;;;8.63;;
3573;SDS011;1801;51.050;6.246;2023-05-07T06:18:52;17.60;;;8.23;;
3573;SDS011;1801;51.050;6.246;2023-05-07T06:21:18;22.13;;;9.13;;
3573;SDS011;1801;51.050;6.246;2023-05-07T06:23:43;15.60;;;8.13;;
3573;SDS011;1801;51.050;6.246;2023-05-07T06:26:08;13.97;;;7.03;;
3573;SDS011;1801;51.050;6.246;2023-05-07T06:28:33;15.83;;;7.97;;
3573;SDS011;1801;51.050;6.246;2023-05-07T06:31:11;13.60;;;7.70;;
3573;SDS011;1801;51.050;6.246;2023-05-07T06:33:37;12.57;;;7.03;;
3573;SDS011;1801;51.050;6.246;2023-05-07T06:36:02;14.67;;;7.07;;
3573;SDS011;1801;51.050;6.246;2023-05-07T06:38:27;12.57;;;6.90;;
3573;SDS011;1801;51.050;6.246;2023-05-07T06:40:52;12.50;;;7.20;;
3573;SDS011;1801;51.050;6.246;2023-05-07T06:43:20;15.80;;;7.50;;
3573;SDS011;1801;51.050;6.246;2023-05-07T06:45:45;14.37;;;7.37;;
3573;SDS011;1801;51.050;6.246;2023-05-07T06:48:10;13.13;;;7.30;;
3573;SDS011;1801;51.050;6.246;2023-05-07T06:50:36;17.60;;;7.17;;
3573;SDS011;1801;51.050;6.246;2023-05-07T06:53:01;14.50;;;8.57;;
3573;SDS011;1801;51.050;6.246;2023-05-07T06:55:26;18.90;;;7.90;;
3573;SDS011;1801;51.050;6.246;2023-05-07T06:57:52;14.67;;;7.37;;
3573;SDS011;1801;51.050;6.246;2023-05-07T07:00:17;13.20;;;6.70;;
3573;SDS011;1801;51.050;6.246;2023-05-07T07:02:42;12.27;;;7.03;;
3573;SDS011;1801;51.050;6.246;2023-05-07T07:05:08;13.27;;;7.53;;
3573;SDS011;1801;51.050;6.246;2023-05-07T07:07:33;13.70;;;7.10;;
3573;SDS011;1801;51.050;6.246;2023-05-07T07:09:59;11.13;;;6.60;;
3573;SDS011;1801;51.050;6.246;2023-05-07T07:12:24;12.20;;;7.60;;
3573;SDS011;1801;51.050;6.246;2023-05-07T07:14:51;10.77;;;6.73;;
3573;SDS011;1801;51.050;6.246;2023-05-07T07:17:16;10.47;;;6.10;;
3573;SDS011;1801;51.050;6.246;2023-05-07T07:19:41;10.50;;;6.47;;
3573;SDS011;1801;51.050;6.246;2023-05-07T07:22:06;8.77;;;5.77;;
3573;SDS011;1801;51.050;6.246;2023-05-07T07:24:31;11.17;;;6.03;;
3573;SDS011;1801;51.050;6.246;2023-05-07T07:26:57;7.60;;;5.40;;
3573;SDS011;1801;51.050;6.246;2023-05-07T07:29:22;14.47;;;5.50;;
3573;SDS011;1801;51.050;6.246;2023-05-07T07:31:48;12.07;;;5.53;;
3573;SDS011;1801;51.050;6.246;2023-05-07T07:34:14;12.37;;;5.53;;
3573;SDS011;1801;51.050;6.246;2023-05-07T07:36:39;12.13;;;6.67;;
3573;SDS011;1801;51.050;6.246;2023-05-07T07:39:04;9.60;;;6.30;;
3573;SDS011;1801;51.050;6.246;2023-05-07T07:41:30;12.37;;;6.17;;
3573;SDS011;1801;51.050;6.246;2023-05-07T07:43:55;12.93;;;6.53;;
3573;SDS011;1801;51.050;6.246;2023-05-07T07:46:20;10.47;;;5.60;;
3573;SDS011;1801;51.050;6.246;2023-05-07T07:48:45;12.30;;;6.93;;
3573;SDS011;1801;51.050;6.246;2023-05-07T07:51:11;14.60;;;6.43;;
3573;SDS011;1801;51.050;6.246;2023-05-07T07:53:36;10.23;;;6.10;;
3573;SDS011;1801;51.050;6.246;2023-05-07T07:56:01;11.37;;;5.83;;
3573;SDS011;1801;51.050;6.246;2023-05-07T07:58:26;9.83;;;6.20;;
3573;SDS011;1801;51.050;6.246;2023-05-07T08:00:52;10.33;;;5.20;;
3573;SDS011;1801;51.050;6.246;2023-05-07T08:03:17;12.47;;;6.27;;
3573;SDS011;1801;51.050;6.246;2023-05-07T08:05:43;13.27;;;6.40;;
3573;SDS011;1801;51.050;6.246;2023-05-07T08:08:08;10.13;;;5.87;;
3573;SDS011;1801;51.050;6.246;2023-05-07T08:10:34;9.63;;;5.90;;
3573;SDS011;1801;51.050;6.246;2023-05-07T08:12:59;9.13;;;5.60;;
3573;SDS011;1801;51.050;6.246;2023-05-07T08:15:25;9.23;;;6.03;;
3573;SDS011;1801;51.050;6.246;2023-05-07T08:17:50;11.20;;;5.77;;
3573;SDS011;1801;51.050;6.246;2023-05-07T08:20:15;8.80;;;5.10;;
3573;SDS011;1801;51.050;6.246;2023-05-07T08:22:40;10.50;;;5.30;;
3573;SDS011;1801;51.050;6.246;2023-05-07T08:25:06;9.37;;;5.57;;
3573;SDS011;1801;51.050;6.246;2023-05-07T08:27:31;6.97;;;4.83;;
3573;SDS011;1801;51.050;6.246;2023-05-07T08:29:56;9.20;;;5.40;;
3573;SDS011;1801;51.050;6.246;2023-05-07T08:32:21;8.80;;;6.10;;
3573;SDS011;1801;51.050;6.246;2023-05-07T08:34:47;16.83;;;6.00;;
3573;SDS011;1801;51.050;6.246;2023-05-07T08:37:12;8.40;;;5.87;;
3573;SDS011;1801;51.050;6.246;2023-05-07T08:39:41;8.43;;;6.37;;
3573;SDS011;1801;51.050;6.246;2023-05-07T08:42:06;9.87;;;6.13;;
3573;SDS011;1801;51.050;6.246;2023-05-07T08:44:34;8.73;;;5.40;;
3573;SDS011;1801;51.050;6.246;2023-05-07T08:47:00;9.10;;;6.00;;
3573;SDS011;1801;51.050;6.246;2023-05-07T08:49:26;7.70;;;6.17;;
3573;SDS011;1801;51.050;6.246;2023-05-07T08:51:52;9.27;;;5.93;;
3573;SDS011;1801;51.050;6.246;2023-05-07T08:54:17;8.07;;;5.30;;
3573;SDS011;1801;51.050;6.246;2023-05-07T08:56:44;8.47;;;5.50;;
3573;SDS011;1801;51.050;6.246;2023-05-07T08:59:10;8.37;;;5.40;;
3573;SDS011;1801;51.050;6.246;2023-05-07T09:01:35;7.50;;;5.33;;
3573;SDS011;1801;51.050;6.246;2023-05-07T09:04:01;7.53;;;5.27;;
3573;SDS011;1801;51.050;6.246;2023-05-07T09:06:26;7.10;;;5.03;;
3573;SDS011;1801;51.050;6.246;2023-05-07T09:08:52;6.70;;;4.73;;
3573;SDS011;1801;51.050;6.246;2023-05-07T09:11:21;6.60;;;4.80;;
3573;SDS011;1801;51.050;6.246;2023-05-07T09:13:47;7.50;;;5.03;;
3573;SDS011;1801;51.050;6.246;2023-05-07T09:16:13;5.80;;;4.47;;
3573;SDS011;1801;51.050;6.246;2023-05-07T09:18:42;4.77;;;4.00;;
3573;SDS011;1801;51.050;6.246;2023-05-07T09:21:09;8.10;;;5.57;;
3573;SDS011;1801;51.050;6.246;2023-05-07T09:23:34;7.80;;;5.00;;
3573;SDS011;1801;51.050;6.246;2023-05-07T09:26:00;6.63;;;5.00;;
3573;SDS011;1801;51.050;6.246;2023-05-07T09:28:26;9.30;;;5.03;;
3573;SDS011;1801;51.050;6.246;2023-05-07T09:30:51;5.30;;;4.40;;
3573;SDS011;1801;51.050;6.246;2023-05-07T09:33:16;6.97;;;4.20;;
3573;SDS011;1801;51.050;6.246;2023-05-07T09:35:42;5.83;;;4.33;;
3573;SDS011;1801;51.050;6.246;2023-05-07T09:38:07;5.40;;;4.80;;
3573;SDS011;1801;51.050;6.246;2023-05-07T09:40:32;8.67;;;5.63;;
3573;SDS011;1801;51.050;6.246;2023-05-07T09:43:08;6.73;;;5.13;;
3573;SDS011;1801;51.050;6.246;2023-05-07T09:45:33;7.30;;;6.00;;
3573;SDS011;1801;51.050;6.246;2023-05-07T09:47:58;7.50;;;4.97;;
3573;SDS011;1801;51.050;6.246;2023-05-07T09:50:27;7.30;;;5.63;;
3573;SDS011;1801;51.050;6.246;2023-05-07T09:52:53;7.20;;;6.00;;
3573;SDS011;1801;51.050;6.246;2023-05-07T09:55:19;11.87;;;7.20;;
3573;SDS011;1801;51.050;6.246;2023-05-07T09:57:44;9.93;;;6.43;;
3573;SDS011;1801;51.050;6.246;2023-05-07T10:00:10;11.80;;;7.07;;
3573;SDS011;1801;51.050;6.246;2023-05-07T10:02:35;10.90;;;6.57;;
3573;SDS011;1801;51.050;6.246;2023-05-07T10:05:01;9.07;;;6.67;;
3573;SDS011;1801;51.050;6.246;2023-05-07T10:07:27;13.50;;;6.90;;
3573;SDS011;1801;51.050;6.246;2023-05-07T10:09:53;12.17;;;6.20;;
3573;SDS011;1801;51.050;6.246;2023-05-07T10:12:19;8.13;;;6.10;;
3573;SDS011;1801;51.050;6.246;2023-05-07T10:14:45;16.47;;;6.50;;
3573;SDS011;1801;51.050;6.246;2023-05-07T10:17:10;7.60;;;5.30;;
3573;SDS011;1801;51.050;6.246;2023-05-07T10:19:36;11.00;;;5.10;;
3573;SDS011;1801;51.050;6.246;2023-05-07T10:22:03;9.60;;;5.00;;
3573;SDS011;1801;51.050;6.246;2023-05-07T10:24:31;7.80;;;4.60;;
3573;SDS011;1801;51.050;6.246;2023-05-07T10:26:58;10.90;;;4.70;;
3573;SDS011;1801;51.050;6.246;2023-05-07T10:32:30;8.13;;;4.33;;
3573;SDS011;1801;51.050;6.246;2023-05-07T10:34:45;5.47;;;3.73;;
3573;SDS011;1801;51.050;6.246;2023-05-07T10:37:12;8.47;;;3.50;;
3573;SDS011;1801;51.050;6.246;2023-05-07T10:39:37;11.87;;;3.77;;
3573;SDS011;1801;51.050;6.246;2023-05-07T10:42:12;4.90;;;3.43;;
3573;SDS011;1801;51.050;6.246;2023-05-07T10:44:37;6.30;;;3.37;;
3573;SDS011;1801;51.050;6.246;2023-05-07T10:47:03;6.80;;;2.63;;
3573;SDS011;1801;51.050;6.246;2023-05-07T10:49:29;6.53;;;2.10;;
3573;SDS011;1801;51.050;6.246;2023-05-07T10:57:36;8.37;;;2.50;;
3573;SDS011;1801;51.050;6.246;2023-05-07T11:00:02;4.93;;;2.50;;
3573;SDS011;1801;51.050;6.246;2023-05-07T11:05:21;5.80;;;2.80;;
3573;SDS011;1801;51.050;6.246;2023-05-07T11:07:53;6.30;;;2.73;;
3573;SDS011;1801;51.050;6.246;2023-05-07T11:10:19;4.33;;;2.30;;
3573;SDS011;1801;51.050;6.246;2023-05-07T11:15:10;5.80;;;2.53;;
3573;SDS011;1801;51.050;6.246;2023-05-07T11:20:19;3.63;;;1.83;;
3573;SDS011;1801;51.050;6.246;2023-05-07T11:22:45;6.03;;;3.10;;
3573;SDS011;1801;51.050;6.246;2023-05-07T11:25:10;3.20;;;2.30;;
3573;SDS011;1801;51.050;6.246;2023-05-07T11:27:42;6.30;;;2.70;;
3573;SDS011;1801;51.050;6.246;2023-05-07T11:30:07;5.40;;;2.80;;
3573;SDS011;1801;51.050;6.246;2023-05-07T11:32:33;6.37;;;3.00;;
3573;SDS011;1801;51.050;6.246;2023-05-07T11:34:58;4.77;;;2.73;;
3573;SDS011;1801;51.050;6.246;2023-05-07T11:37:25;4.70;;;2.83;;
3573;SDS011;1801;51.050;6.246;2023-05-07T11:39:51;3.20;;;2.67;;
3573;SDS011;1801;51.050;6.246;2023-05-07T11:42:30;4.33;;;2.83;;
3573;SDS011;1801;51.050;6.246;2023-05-07T11:44:56;3.27;;;2.97;;
3573;SDS011;1801;51.050;6.246;2023-05-07T11:47:21;3.83;;;2.73;;
3573;SDS011;1801;51.050;6.246;2023-05-07T11:49:47;5.13;;;3.03;;
3573;SDS011;1801;51.050;6.246;2023-05-07T11:52:13;4.70;;;2.90;;
3573;SDS011;1801;51.050;6.246;2023-05-07T11:54:38;4.77;;;2.90;;
3573;SDS011;1801;51.050;6.246;2023-05-07T11:57:03;5.70;;;2.93;;
3573;SDS011;1801;51.050;6.246;2023-05-07T11:59:29;6.00;;;3.70;;
3573;SDS011;1801;51.050;6.246;2023-05-07T12:01:57;5.80;;;3.40;;
3573;SDS011;1801;51.050;6.246;2023-05-07T12:04:22;4.70;;;2.63;;
3573;SDS011;1801;51.050;6.246;2023-05-07T12:06:48;6.57;;;3.10;;
3573;SDS011;1801;51.050;6.246;2023-05-07T12:09:13;5.70;;;3.70;;
3573;SDS011;1801;51.050;6.246;2023-05-07T12:11:38;4.80;;;3.10;;
3573;SDS011;1801;51.050;6.246;2023-05-07T12:14:04;7.63;;;3.00;;
3573;SDS011;1801;51.050;6.246;2023-05-07T12:16:30;3.73;;;3.33;;
3573;SDS011;1801;51.050;6.246;2023-05-07T12:18:55;4.67;;;2.80;;
3573;SDS011;1801;51.050;6.246;2023-05-07T12:21:21;3.57;;;2.57;;
3573;SDS011;1801;51.050;6.246;2023-05-07T12:23:46;4.27;;;2.60;;
3573;SDS011;1801;51.050;6.246;2023-05-07T12:26:12;10.40;;;3.67;;
3573;SDS011;1801;51.050;6.246;2023-05-07T12:28:38;7.40;;;2.87;;
3573;SDS011;1801;51.050;6.246;2023-05-07T12:31:03;5.20;;;2.60;;
3573;SDS011;1801;51.050;6.246;2023-05-07T12:33:29;4.93;;;3.10;;
3573;SDS011;1801;51.050;6.246;2023-05-07T12:35:55;7.40;;;2.53;;
3573;SDS011;1801;51.050;6.246;2023-05-07T12:38:24;10.27;;;2.90;;
3573;SDS011;1801;51.050;6.246;2023-05-07T12:40:50;3.90;;;2.77;;
3573;SDS011;1801;51.050;6.246;2023-05-07T12:43:24;3.40;;;2.47;;
3573;SDS011;1801;51.050;6.246;2023-05-07T12:45:50;6.10;;;2.70;;
3573;SDS011;1801;51.050;6.246;2023-05-07T12:48:15;4.67;;;2.50;;
3573;SDS011;1801;51.050;6.246;2023-05-07T12:50:40;5.53;;;2.43;;
3573;SDS011;1801;51.050;6.246;2023-05-07T12:53:06;3.90;;;2.20;;
3573;SDS011;1801;51.050;6.246;2023-05-07T12:55:34;5.20;;;2.60;;
3573;SDS011;1801;51.050;6.246;2023-05-07T12:58:04;3.13;;;2.30;;
3573;SDS011;1801;51.050;6.246;2023-05-07T13:00:36;3.60;;;2.00;;
3573;SDS011;1801;51.050;6.246;2023-05-07T13:03:02;3.57;;;1.97;;
3573;SDS011;1801;51.050;6.246;2023-05-07T13:05:27;2.67;;;1.90;;
3573;SDS011;1801;51.050;6.246;2023-05-07T13:07:55;5.97;;;2.43;;
3573;SDS011;1801;51.050;6.246;2023-05-07T13:10:21;4.53;;;1.87;;
3573;SDS011;1801;51.050;6.246;2023-05-07T13:12:47;3.43;;;2.37;;
3573;SDS011;1801;51.050;6.246;2023-05-07T13:15:12;8.20;;;4.10;;
3573;SDS011;1801;51.050;6.246;2023-05-07T13:17:37;10.50;;;5.03;;
3573;SDS011;1801;51.050;6.246;2023-05-07T13:20:03;5.83;;;5.17;;
3573;SDS011;1801;51.050;6.246;2023-05-07T13:22:28;11.60;;;7.53;;
3573;SDS011;1801;51.050;6.246;2023-05-07T13:24:53;12.10;;;7.27;;
3573;SDS011;1801;51.050;6.246;2023-05-07T13:27:20;22.43;;;9.30;;
3573;SDS011;1801;51.050;6.246;2023-05-07T13:29:45;91.23;;;35.43;;
3573;SDS011;1801;51.050;6.246;2023-05-07T13:32:10;46.90;;;19.97;;
3573;SDS011;1801;51.050;6.246;2023-05-07T13:34:35;44.30;;;19.30;;
3573;SDS011;1801;51.050;6.246;2023-05-07T13:37:01;17.50;;;7.00;;
3573;SDS011;1801;51.050;6.246;2023-05-07T13:39:27;23.33;;;6.50;;
3573;SDS011;1801;51.050;6.246;2023-05-07T13:41:52;14.27;;;6.47;;
3573;SDS011;1801;51.050;6.246;2023-05-07T13:44:17;15.07;;;6.73;;
3573;SDS011;1801;51.050;6.246;2023-05-07T13:46:42;16.53;;;7.07;;
3573;SDS011;1801;51.050;6.246;2023-05-07T13:49:07;22.10;;;9.73;;
3573;SDS011;1801;51.050;6.246;2023-05-07T13:51:33;32.33;;;11.33;;
3573;SDS011;1801;51.050;6.246;2023-05-07T13:53:58;13.43;;;8.10;;
3573;SDS011;1801;51.050;6.246;2023-05-07T13:56:23;21.70;;;11.30;;
3573;SDS011;1801;51.050;6.246;2023-05-07T13:58:48;25.73;;;15.40;;
3573;SDS011;1801;51.050;6.246;2023-05-07T14:01:13;25.43;;;15.50;;
3573;SDS011;1801;51.050;6.246;2023-05-07T14:03:39;24.63;;;12.97;;
3573;SDS011;1801;51.050;6.246;2023-05-07T14:06:04;16.83;;;11.13;;
3573;SDS011;1801;51.050;6.246;2023-05-07T14:08:30;16.63;;;10.57;;
3573;SDS011;1801;51.050;6.246;2023-05-07T14:10:55;25.43;;;14.47;;
3573;SDS011;1801;51.050;6.246;2023-05-07T14:13:20;24.13;;;14.40;;
3573;SDS011;1801;51.050;6.246;2023-05-07T14:15:45;43.50;;;27.27;;
3573;SDS011;1801;51.050;6.246;2023-05-07T14:18:14;27.03;;;15.83;;
3573;SDS011;1801;51.050;6.246;2023-05-07T14:20:40;20.73;;;12.50;;
3573;SDS011;1801;51.050;6.246;2023-05-07T14:23:05;23.40;;;13.60;;
3573;SDS011;1801;51.050;6.246;2023-05-07T14:25:30;16.73;;;11.90;;
3573;SDS011;1801;51.050;6.246;2023-05-07T14:27:55;13.77;;;10.90;;
3573;SDS011;1801;51.050;6.246;2023-05-07T14:30:21;14.73;;;10.80;;
3573;SDS011;1801;51.050;6.246;2023-05-07T14:32:49;26.80;;;13.37;;
3573;SDS011;1801;51.050;6.246;2023-05-07T14:35:14;19.27;;;10.60;;
3573;SDS011;1801;51.050;6.246;2023-05-07T14:37:39;19.00;;;10.40;;
3573;SDS011;1801;51.050;6.246;2023-05-07T14:40:05;14.60;;;9.00;;
3573;SDS011;1801;51.050;6.246;2023-05-07T14:42:31;11.70;;;8.83;;
3573;SDS011;1801;51.050;6.246;2023-05-07T14:44:56;11.33;;;8.23;;
3573;SDS011;1801;51.050;6.246;2023-05-07T14:47:21;13.40;;;7.57;;
3573;SDS011;1801;51.050;6.246;2023-05-07T14:49:49;10.43;;;7.23;;
3573;SDS011;1801;51.050;6.246;2023-05-07T14:52:14;14.33;;;6.90;;
3573;SDS011;1801;51.050;6.246;2023-05-07T14:54:40;14.60;;;8.10;;
3573;SDS011;1801;51.050;6.246;2023-05-07T14:57:05;10.53;;;7.63;;
3573;SDS011;1801;51.050;6.246;2023-05-07T14:59:31;10.30;;;6.93;;
3573;SDS011;1801;51.050;6.246;2023-05-07T15:01:57;11.97;;;7.30;;
3573;SDS011;1801;51.050;6.246;2023-05-07T15:04:22;9.47;;;7.03;;